sensor_id;sensor_type;location;lat;lon;timestamp;P1;durP1;ratioP1;P2;durP2;ratioP2
76320;SDS011;65132;52.088;5.402;2023-06-19T00:02:03;8.05;;;6.40;;
76320;SDS011;65132;52.088;5.402;2023-06-19T00:04:31;9.90;;;6.68;;
76320;SDS011;65132;52.088;5.402;2023-06-19T00:07:00;10.38;;;6.95;;
76320;SDS011;65132;52.088;5.402;2023-06-19T00:09:33;10.70;;;7.22;;
76320;SDS011;65132;52.088;5.402;2023-06-19T00:12:02;11.38;;;7.25;;
76320;SDS011;65132;52.088;5.402;2023-06-19T00:14:30;9.73;;;6.93;;
76320;SDS011;65132;52.088;5.402;2023-06-19T00:16:59;9.07;;;6.80;;
76320;SDS011;65132;52.088;5.402;2023-06-19T00:19:27;10.05;;;7.05;;
76320;SDS011;65132;52.088;5.402;2023-06-19T00:21:57;9.25;;;7.10;;
76320;SDS011;65132;52.088;5.402;2023-06-19T00:26:55;9.90;;;7.32;;
76320;SDS011;65132;52.088;5.402;2023-06-19T00:29:34;10.10;;;6.97;;
76320;SDS011;65132;52.088;5.402;2023-06-19T00:34:46;10.68;;;6.95;;
76320;SDS011;65132;52.088;5.402;2023-06-19T00:40:00;9.02;;;6.65;;
76320;SDS011;65132;52.088;5.402;2023-06-19T00:42:28;9.48;;;7.03;;
76320;SDS011;65132;52.088;5.402;2023-06-19T00:44:58;13.00;;;7.22;;
76320;SDS011;65132;52.088;5.402;2023-06-19T01:01:27;5.63;;;4.45;;
76320;SDS011;65132;52.088;5.402;2023-06-19T01:03:54;5.90;;;3.90;;
76320;SDS011;65132;52.088;5.402;2023-06-19T01:14:39;4.80;;;3.03;;
76320;SDS011;65132;52.088;5.402;2023-06-19T01:17:16;6.05;;;3.28;;
76320;SDS011;65132;52.088;5.402;2023-06-19T01:19:42;6.68;;;3.15;;
76320;SDS011;65132;52.088;5.402;2023-06-19T01:35:31;4.63;;;1.80;;
76320;SDS011;65132;52.088;5.402;2023-06-19T01:38:03;4.57;;;2.22;;
76320;SDS011;65132;52.088;5.402;2023-06-19T01:45:48;3.05;;;1.40;;
76320;SDS011;65132;52.088;5.402;2023-06-19T01:48:25;3.17;;;1.48;;
76320;SDS011;65132;52.088;5.402;2023-06-19T01:50:53;3.15;;;1.70;;
76320;SDS011;65132;52.088;5.402;2023-06-19T01:58:42;5.07;;;1.65;;
76320;SDS011;65132;52.088;5.402;2023-06-19T02:01:10;3.05;;;1.40;;
76320;SDS011;65132;52.088;5.402;2023-06-19T02:03:37;3.38;;;1.50;;
76320;SDS011;65132;52.088;5.402;2023-06-19T02:06:09;3.17;;;1.80;;
76320;SDS011;65132;52.088;5.402;2023-06-19T02:14:00;3.92;;;2.15;;
76320;SDS011;65132;52.088;5.402;2023-06-19T02:24:53;4.82;;;2.03;;
76320;SDS011;65132;52.088;5.402;2023-06-19T02:46:09;3.60;;;2.40;;
76320;SDS011;65132;52.088;5.402;2023-06-19T02:48:38;6.82;;;2.22;;
76320;SDS011;65132;52.088;5.402;2023-06-19T04:10:19;8.18;;;5.32;;
76320;SDS011;65132;52.088;5.402;2023-06-19T04:12:47;11.18;;;5.90;;
76320;SDS011;65132;52.088;5.402;2023-06-19T04:23:19;12.15;;;7.95;;
76320;SDS011;65132;52.088;5.402;2023-06-19T05:07:25;6.22;;;4.45;;
76320;SDS011;65132;52.088;5.402;2023-06-19T05:09:54;8.90;;;4.47;;
76320;SDS011;65132;52.088;5.402;2023-06-19T05:12:23;8.00;;;4.70;;
76320;SDS011;65132;52.088;5.402;2023-06-19T05:14:55;9.07;;;3.58;;
76320;SDS011;65132;52.088;5.402;2023-06-19T05:17:25;7.88;;;3.35;;
76320;SDS011;65132;52.088;5.402;2023-06-19T05:25:13;5.38;;;3.47;;
76320;SDS011;65132;52.088;5.402;2023-06-19T05:27:40;7.38;;;3.78;;
76320;SDS011;65132;52.088;5.402;2023-06-19T05:30:09;7.28;;;3.67;;
76320;SDS011;65132;52.088;5.402;2023-06-19T05:32:37;8.50;;;5.05;;
76320;SDS011;65132;52.088;5.402;2023-06-19T05:35:06;8.60;;;4.70;;
76320;SDS011;65132;52.088;5.402;2023-06-19T05:37:33;10.45;;;5.38;;
76320;SDS011;65132;52.088;5.402;2023-06-19T05:40:00;9.30;;;5.80;;
76320;SDS011;65132;52.088;5.402;2023-06-19T05:42:26;10.98;;;6.05;;
76320;SDS011;65132;52.088;5.402;2023-06-19T05:44:53;11.25;;;6.38;;
76320;SDS011;65132;52.088;5.402;2023-06-19T05:47:19;11.25;;;6.75;;
76320;SDS011;65132;52.088;5.402;2023-06-19T05:49:46;12.98;;;7.55;;
76320;SDS011;65132;52.088;5.402;2023-06-19T05:52:13;12.00;;;7.97;;
76320;SDS011;65132;52.088;5.402;2023-06-19T05:54:39;11.57;;;7.72;;
76320;SDS011;65132;52.088;5.402;2023-06-19T05:57:08;11.10;;;6.65;;
76320;SDS011;65132;52.088;5.402;2023-06-19T06:05:07;10.85;;;7.13;;
76320;SDS011;65132;52.088;5.402;2023-06-19T06:07:37;13.20;;;7.80;;
76320;SDS011;65132;52.088;5.402;2023-06-19T06:10:06;13.73;;;7.63;;
76320;SDS011;65132;52.088;5.402;2023-06-19T06:12:36;11.73;;;7.68;;
76320;SDS011;65132;52.088;5.402;2023-06-19T06:15:04;10.52;;;6.68;;
76320;SDS011;65132;52.088;5.402;2023-06-19T06:17:31;12.10;;;7.30;;
76320;SDS011;65132;52.088;5.402;2023-06-19T06:20:01;14.73;;;7.32;;
76320;SDS011;65132;52.088;5.402;2023-06-19T06:22:34;10.70;;;7.57;;
76320;SDS011;65132;52.088;5.402;2023-06-19T06:25:05;11.75;;;7.68;;
76320;SDS011;65132;52.088;5.402;2023-06-19T06:27:34;11.90;;;7.38;;
76320;SDS011;65132;52.088;5.402;2023-06-19T06:30:05;10.73;;;7.55;;
76320;SDS011;65132;52.088;5.402;2023-06-19T06:32:32;10.07;;;6.13;;
76320;SDS011;65132;52.088;5.402;2023-06-19T06:34:59;8.20;;;5.00;;
76320;SDS011;65132;52.088;5.402;2023-06-19T06:37:31;8.07;;;5.35;;
76320;SDS011;65132;52.088;5.402;2023-06-19T06:40:00;6.95;;;4.93;;
76320;SDS011;65132;52.088;5.402;2023-06-19T06:42:41;8.63;;;5.57;;
76320;SDS011;65132;52.088;5.402;2023-06-19T06:45:15;6.57;;;5.03;;
76320;SDS011;65132;52.088;5.402;2023-06-19T06:47:41;8.38;;;5.18;;
76320;SDS011;65132;52.088;5.402;2023-06-19T06:50:11;7.68;;;4.88;;
76320;SDS011;65132;52.088;5.402;2023-06-19T06:52:44;10.07;;;5.50;;
76320;SDS011;65132;52.088;5.402;2023-06-19T06:55:14;8.38;;;5.57;;
76320;SDS011;65132;52.088;5.402;2023-06-19T06:57:40;8.52;;;5.82;;
76320;SDS011;65132;52.088;5.402;2023-06-19T07:00:07;8.10;;;5.63;;
76320;SDS011;65132;52.088;5.402;2023-06-19T07:02:40;11.82;;;5.65;;
76320;SDS011;65132;52.088;5.402;2023-06-19T07:05:08;9.43;;;6.15;;
76320;SDS011;65132;52.088;5.402;2023-06-19T07:07:36;12.82;;;6.30;;
76320;SDS011;65132;52.088;5.402;2023-06-19T07:10:03;10.07;;;5.70;;
76320;SDS011;65132;52.088;5.402;2023-06-19T07:12:30;10.85;;;7.80;;
76320;SDS011;65132;52.088;5.402;2023-06-19T07:14:59;18.80;;;10.27;;
76320;SDS011;65132;52.088;5.402;2023-06-19T07:17:26;15.93;;;10.32;;
76320;SDS011;65132;52.088;5.402;2023-06-19T07:19:53;18.65;;;10.98;;
76320;SDS011;65132;52.088;5.402;2023-06-19T07:22:22;16.58;;;10.20;;
76320;SDS011;65132;52.088;5.402;2023-06-19T07:24:48;16.20;;;10.77;;
76320;SDS011;65132;52.088;5.402;2023-06-19T07:27:18;17.40;;;10.80;;
76320;SDS011;65132;52.088;5.402;2023-06-19T07:29:46;12.52;;;9.02;;
76320;SDS011;65132;52.088;5.402;2023-06-19T07:32:15;17.55;;;11.13;;
76320;SDS011;65132;52.088;5.402;2023-06-19T07:34:42;15.32;;;10.52;;
76320;SDS011;65132;52.088;5.402;2023-06-19T07:37:12;14.30;;;8.77;;
76320;SDS011;65132;52.088;5.402;2023-06-19T07:39:38;14.50;;;9.57;;
76320;SDS011;65132;52.088;5.402;2023-06-19T07:42:09;15.27;;;9.93;;
76320;SDS011;65132;52.088;5.402;2023-06-19T07:44:36;18.02;;;11.30;;
76320;SDS011;65132;52.088;5.402;2023-06-19T07:47:04;20.80;;;11.65;;
76320;SDS011;65132;52.088;5.402;2023-06-19T07:49:33;21.17;;;13.20;;
76320;SDS011;65132;52.088;5.402;2023-06-19T07:52:00;18.88;;;12.88;;
76320;SDS011;65132;52.088;5.402;2023-06-19T07:54:34;19.08;;;12.02;;
76320;SDS011;65132;52.088;5.402;2023-06-19T07:57:05;21.27;;;12.90;;
76320;SDS011;65132;52.088;5.402;2023-06-19T07:59:31;20.33;;;12.93;;
76320;SDS011;65132;52.088;5.402;2023-06-19T08:02:01;18.15;;;12.57;;
76320;SDS011;65132;52.088;5.402;2023-06-19T08:04:27;18.02;;;10.65;;
76320;SDS011;65132;52.088;5.402;2023-06-19T08:06:54;17.38;;;11.18;;
76320;SDS011;65132;52.088;5.402;2023-06-19T08:09:25;18.13;;;12.10;;
76320;SDS011;65132;52.088;5.402;2023-06-19T08:11:51;18.55;;;11.80;;
76320;SDS011;65132;52.088;5.402;2023-06-19T08:14:19;17.77;;;10.25;;
76320;SDS011;65132;52.088;5.402;2023-06-19T08:16:48;19.55;;;11.68;;
76320;SDS011;65132;52.088;5.402;2023-06-19T08:19:17;18.92;;;13.15;;
76320;SDS011;65132;52.088;5.402;2023-06-19T08:21:43;21.60;;;14.90;;
76320;SDS011;65132;52.088;5.402;2023-06-19T08:24:20;21.55;;;13.65;;
76320;SDS011;65132;52.088;5.402;2023-06-19T08:26:46;19.98;;;12.90;;
76320;SDS011;65132;52.088;5.402;2023-06-19T08:29:13;17.38;;;11.85;;
76320;SDS011;65132;52.088;5.402;2023-06-19T08:31:42;17.83;;;11.93;;
76320;SDS011;65132;52.088;5.402;2023-06-19T08:34:12;21.13;;;12.65;;
76320;SDS011;65132;52.088;5.402;2023-06-19T08:36:46;17.73;;;10.75;;
76320;SDS011;65132;52.088;5.402;2023-06-19T08:39:15;17.25;;;11.60;;
76320;SDS011;65132;52.088;5.402;2023-06-19T08:42:00;18.52;;;11.45;;
76320;SDS011;65132;52.088;5.402;2023-06-19T08:44:29;17.60;;;11.32;;
76320;SDS011;65132;52.088;5.402;2023-06-19T08:46:57;19.30;;;10.68;;
76320;SDS011;65132;52.088;5.402;2023-06-19T08:49:23;16.27;;;10.90;;
76320;SDS011;65132;52.088;5.402;2023-06-19T08:51:56;21.98;;;11.45;;
76320;SDS011;65132;52.088;5.402;2023-06-19T08:54:29;19.95;;;12.85;;
76320;SDS011;65132;52.088;5.402;2023-06-19T08:56:55;19.55;;;12.18;;
76320;SDS011;65132;52.088;5.402;2023-06-19T08:59:22;22.20;;;12.50;;
76320;SDS011;65132;52.088;5.402;2023-06-19T09:01:52;20.55;;;12.10;;
76320;SDS011;65132;52.088;5.402;2023-06-19T09:04:21;21.58;;;13.00;;
76320;SDS011;65132;52.088;5.402;2023-06-19T09:06:54;23.25;;;13.00;;
76320;SDS011;65132;52.088;5.402;2023-06-19T09:09:30;22.40;;;14.20;;
76320;SDS011;65132;52.088;5.402;2023-06-19T09:12:08;21.17;;;12.90;;
76320;SDS011;65132;52.088;5.402;2023-06-19T09:14:40;22.02;;;13.75;;
76320;SDS011;65132;52.088;5.402;2023-06-19T09:17:18;22.67;;;14.75;;
76320;SDS011;65132;52.088;5.402;2023-06-19T09:19:54;28.45;;;14.43;;
76320;SDS011;65132;52.088;5.402;2023-06-19T09:22:24;23.00;;;13.93;;
76320;SDS011;65132;52.088;5.402;2023-06-19T09:24:51;19.90;;;12.27;;
76320;SDS011;65132;52.088;5.402;2023-06-19T09:27:21;21.60;;;12.07;;
76320;SDS011;65132;52.088;5.402;2023-06-19T09:29:53;19.60;;;12.00;;
76320;SDS011;65132;52.088;5.402;2023-06-19T09:32:24;23.42;;;14.00;;
76320;SDS011;65132;52.088;5.402;2023-06-19T09:34:57;21.50;;;12.45;;
76320;SDS011;65132;52.088;5.402;2023-06-19T09:37:29;19.70;;;11.35;;
76320;SDS011;65132;52.088;5.402;2023-06-19T09:40:00;21.15;;;12.82;;
76320;SDS011;65132;52.088;5.402;2023-06-19T09:42:39;18.35;;;11.27;;
76320;SDS011;65132;52.088;5.402;2023-06-19T09:45:14;17.98;;;12.18;;
76320;SDS011;65132;52.088;5.402;2023-06-19T09:47:46;18.33;;;11.40;;
76320;SDS011;65132;52.088;5.402;2023-06-19T09:52:43;17.95;;;11.95;;
76320;SDS011;65132;52.088;5.402;2023-06-19T09:55:17;18.25;;;11.35;;
76320;SDS011;65132;52.088;5.402;2023-06-19T09:57:45;16.92;;;10.85;;
76320;SDS011;65132;52.088;5.402;2023-06-19T10:00:23;17.83;;;10.85;;
76320;SDS011;65132;52.088;5.402;2023-06-19T10:02:50;20.10;;;12.02;;
76320;SDS011;65132;52.088;5.402;2023-06-19T10:05:17;24.40;;;13.38;;
76320;SDS011;65132;52.088;5.402;2023-06-19T10:07:57;17.42;;;10.32;;
76320;SDS011;65132;52.088;5.402;2023-06-19T10:10:32;18.08;;;11.50;;
76320;SDS011;65132;52.088;5.402;2023-06-19T10:13:12;18.05;;;11.38;;
76320;SDS011;65132;52.088;5.402;2023-06-19T10:15:41;18.02;;;10.65;;
76320;SDS011;65132;52.088;5.402;2023-06-19T10:18:17;17.42;;;10.52;;
76320;SDS011;65132;52.088;5.402;2023-06-19T10:20:45;16.20;;;10.13;;
76320;SDS011;65132;52.088;5.402;2023-06-19T10:23:17;16.48;;;10.10;;
76320;SDS011;65132;52.088;5.402;2023-06-19T10:28:23;14.40;;;9.85;;
76320;SDS011;65132;52.088;5.402;2023-06-19T10:31:08;15.88;;;10.45;;
76320;SDS011;65132;52.088;5.402;2023-06-19T10:33:39;14.85;;;10.07;;
76320;SDS011;65132;52.088;5.402;2023-06-19T10:36:17;18.38;;;10.68;;
76320;SDS011;65132;52.088;5.402;2023-06-19T10:38:50;15.50;;;10.55;;
76320;SDS011;65132;52.088;5.402;2023-06-19T10:41:17;18.42;;;11.10;;
76320;SDS011;65132;52.088;5.402;2023-06-19T10:46:33;19.08;;;12.43;;
76320;SDS011;65132;52.088;5.402;2023-06-19T10:49:02;16.65;;;10.13;;
76320;SDS011;65132;52.088;5.402;2023-06-19T10:51:30;17.58;;;11.23;;
76320;SDS011;65132;52.088;5.402;2023-06-19T10:53:59;15.35;;;10.70;;
76320;SDS011;65132;52.088;5.402;2023-06-19T10:56:29;15.88;;;10.02;;
76320;SDS011;65132;52.088;5.402;2023-06-19T11:01:38;14.05;;;8.88;;
76320;SDS011;65132;52.088;5.402;2023-06-19T11:04:17;17.60;;;10.48;;
76320;SDS011;65132;52.088;5.402;2023-06-19T11:06:47;12.63;;;9.20;;
76320;SDS011;65132;52.088;5.402;2023-06-19T11:09:17;14.45;;;9.27;;
76320;SDS011;65132;52.088;5.402;2023-06-19T11:11:44;16.10;;;9.05;;
76320;SDS011;65132;52.088;5.402;2023-06-19T11:14:21;14.57;;;8.40;;
76320;SDS011;65132;52.088;5.402;2023-06-19T11:16:55;12.65;;;8.70;;
76320;SDS011;65132;52.088;5.402;2023-06-19T11:19:30;14.77;;;9.10;;
76320;SDS011;65132;52.088;5.402;2023-06-19T11:22:10;13.27;;;8.02;;
76320;SDS011;65132;52.088;5.402;2023-06-19T11:24:37;10.70;;;8.15;;
76320;SDS011;65132;52.088;5.402;2023-06-19T11:27:16;13.70;;;9.65;;
76320;SDS011;65132;52.088;5.402;2023-06-19T11:29:54;14.57;;;10.60;;
76320;SDS011;65132;52.088;5.402;2023-06-19T11:32:21;14.48;;;10.23;;
76320;SDS011;65132;52.088;5.402;2023-06-19T11:34:49;12.63;;;8.93;;
76320;SDS011;65132;52.088;5.402;2023-06-19T11:37:20;14.57;;;10.73;;
76320;SDS011;65132;52.088;5.402;2023-06-19T11:39:47;14.32;;;9.73;;
76320;SDS011;65132;52.088;5.402;2023-06-19T11:42:15;14.25;;;10.77;;
76320;SDS011;65132;52.088;5.402;2023-06-19T11:44:54;15.05;;;10.57;;
76320;SDS011;65132;52.088;5.402;2023-06-19T11:47:23;14.68;;;9.20;;
76320;SDS011;65132;52.088;5.402;2023-06-19T11:49:52;13.98;;;10.50;;
76320;SDS011;65132;52.088;5.402;2023-06-19T11:52:18;12.77;;;9.75;;
76320;SDS011;65132;52.088;5.402;2023-06-19T11:54:45;14.57;;;9.57;;
76320;SDS011;65132;52.088;5.402;2023-06-19T11:57:11;12.57;;;9.30;;
76320;SDS011;65132;52.088;5.402;2023-06-19T11:59:39;12.77;;;9.43;;
76320;SDS011;65132;52.088;5.402;2023-06-19T12:02:14;13.40;;;9.05;;
76320;SDS011;65132;52.088;5.402;2023-06-19T12:04:41;10.88;;;7.72;;
76320;SDS011;65132;52.088;5.402;2023-06-19T12:07:08;12.73;;;8.80;;
76320;SDS011;65132;52.088;5.402;2023-06-19T12:09:38;14.18;;;9.13;;
76320;SDS011;65132;52.088;5.402;2023-06-19T12:12:07;13.40;;;9.15;;
76320;SDS011;65132;52.088;5.402;2023-06-19T12:14:35;12.57;;;8.73;;
76320;SDS011;65132;52.088;5.402;2023-06-19T12:17:03;15.13;;;9.45;;
76320;SDS011;65132;52.088;5.402;2023-06-19T12:19:29;11.23;;;7.65;;
76320;SDS011;65132;52.088;5.402;2023-06-19T12:21:56;11.77;;;8.82;;
76320;SDS011;65132;52.088;5.402;2023-06-19T12:24:22;11.77;;;8.15;;
76320;SDS011;65132;52.088;5.402;2023-06-19T12:26:59;11.05;;;8.07;;
76320;SDS011;65132;52.088;5.402;2023-06-19T12:29:31;14.85;;;9.18;;
76320;SDS011;65132;52.088;5.402;2023-06-19T12:32:01;11.10;;;8.15;;
76320;SDS011;65132;52.088;5.402;2023-06-19T12:34:32;12.55;;;8.82;;
76320;SDS011;65132;52.088;5.402;2023-06-19T12:37:08;12.95;;;9.13;;
76320;SDS011;65132;52.088;5.402;2023-06-19T12:39:35;11.30;;;8.27;;
76320;SDS011;65132;52.088;5.402;2023-06-19T12:42:01;11.07;;;8.15;;
76320;SDS011;65132;52.088;5.402;2023-06-19T12:44:31;11.30;;;7.57;;
76320;SDS011;65132;52.088;5.402;2023-06-19T12:46:57;12.68;;;7.90;;
76320;SDS011;65132;52.088;5.402;2023-06-19T12:49:29;9.15;;;6.28;;
76320;SDS011;65132;52.088;5.402;2023-06-19T12:51:57;11.30;;;8.10;;
76320;SDS011;65132;52.088;5.402;2023-06-19T12:54:26;13.27;;;7.57;;
76320;SDS011;65132;52.088;5.402;2023-06-19T12:56:57;13.55;;;6.90;;
76320;SDS011;65132;52.088;5.402;2023-06-19T12:59:23;10.32;;;7.00;;
76320;SDS011;65132;52.088;5.402;2023-06-19T13:01:50;11.30;;;7.47;;
76320;SDS011;65132;52.088;5.402;2023-06-19T13:04:18;9.75;;;6.70;;
76320;SDS011;65132;52.088;5.402;2023-06-19T13:06:52;10.20;;;5.85;;
76320;SDS011;65132;52.088;5.402;2023-06-19T13:09:19;10.20;;;6.25;;
76320;SDS011;65132;52.088;5.402;2023-06-19T13:11:58;10.00;;;6.45;;
76320;SDS011;65132;52.088;5.402;2023-06-19T13:14:25;9.50;;;6.22;;
76320;SDS011;65132;52.088;5.402;2023-06-19T13:16:52;11.02;;;6.65;;
76320;SDS011;65132;52.088;5.402;2023-06-19T13:19:21;9.85;;;6.03;;
76320;SDS011;65132;52.088;5.402;2023-06-19T13:21:47;8.90;;;6.22;;
76320;SDS011;65132;52.088;5.402;2023-06-19T13:24:17;8.15;;;5.55;;
76320;SDS011;65132;52.088;5.402;2023-06-19T13:26:47;8.88;;;5.25;;
76320;SDS011;65132;52.088;5.402;2023-06-19T13:29:14;8.55;;;5.10;;
76320;SDS011;65132;52.088;5.402;2023-06-19T13:31:57;9.07;;;5.78;;
76320;SDS011;65132;52.088;5.402;2023-06-19T13:34:25;7.65;;;5.85;;
76320;SDS011;65132;52.088;5.402;2023-06-19T13:36:53;7.03;;;5.03;;
76320;SDS011;65132;52.088;5.402;2023-06-19T13:39:26;6.93;;;5.28;;
76320;SDS011;65132;52.088;5.402;2023-06-19T13:42:07;7.53;;;5.03;;
76320;SDS011;65132;52.088;5.402;2023-06-19T13:44:34;7.40;;;4.90;;
76320;SDS011;65132;52.088;5.402;2023-06-19T13:47:01;9.90;;;5.90;;
76320;SDS011;65132;52.088;5.402;2023-06-19T13:49:36;9.93;;;5.43;;
76320;SDS011;65132;52.088;5.402;2023-06-19T13:52:04;7.55;;;5.10;;
76320;SDS011;65132;52.088;5.402;2023-06-19T13:54:33;8.63;;;5.65;;
76320;SDS011;65132;52.088;5.402;2023-06-19T13:57:05;8.93;;;5.07;;
76320;SDS011;65132;52.088;5.402;2023-06-19T13:59:37;7.47;;;5.25;;
76320;SDS011;65132;52.088;5.402;2023-06-19T14:02:04;8.48;;;6.15;;
76320;SDS011;65132;52.088;5.402;2023-06-19T14:04:33;6.28;;;4.65;;
76320;SDS011;65132;52.088;5.402;2023-06-19T14:06:59;7.78;;;5.10;;
76320;SDS011;65132;52.088;5.402;2023-06-19T14:09:26;8.00;;;5.53;;
76320;SDS011;65132;52.088;5.402;2023-06-19T14:12:00;9.68;;;6.82;;
76320;SDS011;65132;52.088;5.402;2023-06-19T14:14:34;8.95;;;5.07;;
76320;SDS011;65132;52.088;5.402;2023-06-19T14:17:02;9.57;;;5.75;;
76320;SDS011;65132;52.088;5.402;2023-06-19T14:19:31;9.65;;;5.05;;
76320;SDS011;65132;52.088;5.402;2023-06-19T14:21:58;7.75;;;5.10;;
76320;SDS011;65132;52.088;5.402;2023-06-19T14:24:24;7.15;;;4.63;;
76320;SDS011;65132;52.088;5.402;2023-06-19T14:26:53;8.32;;;4.70;;
76320;SDS011;65132;52.088;5.402;2023-06-19T14:29:19;8.90;;;5.30;;
76320;SDS011;65132;52.088;5.402;2023-06-19T14:31:50;6.80;;;4.45;;
76320;SDS011;65132;52.088;5.402;2023-06-19T14:34:19;8.18;;;5.50;;
76320;SDS011;65132;52.088;5.402;2023-06-19T14:36:59;9.30;;;5.05;;
76320;SDS011;65132;52.088;5.402;2023-06-19T14:39:28;9.07;;;4.63;;
76320;SDS011;65132;52.088;5.402;2023-06-19T14:41:56;7.45;;;4.50;;
76320;SDS011;65132;52.088;5.402;2023-06-19T14:44:26;7.97;;;5.47;;
76320;SDS011;65132;52.088;5.402;2023-06-19T14:46:53;7.28;;;4.90;;
76320;SDS011;65132;52.088;5.402;2023-06-19T14:49:20;6.70;;;4.68;;
76320;SDS011;65132;52.088;5.402;2023-06-19T14:52:02;8.82;;;4.82;;
76320;SDS011;65132;52.088;5.402;2023-06-19T14:54:28;7.47;;;4.30;;
76320;SDS011;65132;52.088;5.402;2023-06-19T14:56:55;8.10;;;5.13;;
76320;SDS011;65132;52.088;5.402;2023-06-19T14:59:27;8.65;;;4.95;;
76320;SDS011;65132;52.088;5.402;2023-06-19T15:01:56;8.85;;;5.90;;
76320;SDS011;65132;52.088;5.402;2023-06-19T15:04:25;7.28;;;4.20;;
76320;SDS011;65132;52.088;5.402;2023-06-19T15:06:51;7.40;;;4.90;;
76320;SDS011;65132;52.088;5.402;2023-06-19T15:09:21;5.75;;;4.05;;
76320;SDS011;65132;52.088;5.402;2023-06-19T15:11:48;9.00;;;5.10;;
76320;SDS011;65132;52.088;5.402;2023-06-19T15:14:15;6.68;;;4.43;;
76320;SDS011;65132;52.088;5.402;2023-06-19T15:16:41;7.10;;;4.72;;
76320;SDS011;65132;52.088;5.402;2023-06-19T15:19:08;7.95;;;4.68;;
76320;SDS011;65132;52.088;5.402;2023-06-19T15:21:34;8.77;;;5.18;;
76320;SDS011;65132;52.088;5.402;2023-06-19T15:24:03;8.32;;;4.85;;
76320;SDS011;65132;52.088;5.402;2023-06-19T15:26:34;8.80;;;4.88;;
76320;SDS011;65132;52.088;5.402;2023-06-19T15:29:07;8.65;;;5.05;;
76320;SDS011;65132;52.088;5.402;2023-06-19T15:31:34;7.60;;;4.90;;
76320;SDS011;65132;52.088;5.402;2023-06-19T15:34:00;8.23;;;4.60;;
76320;SDS011;65132;52.088;5.402;2023-06-19T15:36:35;7.88;;;4.82;;
76320;SDS011;65132;52.088;5.402;2023-06-19T15:39:04;7.30;;;5.03;;
76320;SDS011;65132;52.088;5.402;2023-06-19T15:41:39;7.78;;;4.68;;
76320;SDS011;65132;52.088;5.402;2023-06-19T15:44:05;10.23;;;5.63;;
76320;SDS011;65132;52.088;5.402;2023-06-19T15:46:32;7.20;;;4.57;;
76320;SDS011;65132;52.088;5.402;2023-06-19T15:48:58;5.93;;;3.83;;
76320;SDS011;65132;52.088;5.402;2023-06-19T15:51:30;9.35;;;4.90;;
76320;SDS011;65132;52.088;5.402;2023-06-19T15:54:00;7.55;;;4.78;;
76320;SDS011;65132;52.088;5.402;2023-06-19T15:56:27;9.13;;;4.75;;
76320;SDS011;65132;52.088;5.402;2023-06-19T15:58:54;9.13;;;4.68;;
76320;SDS011;65132;52.088;5.402;2023-06-19T16:01:24;7.43;;;4.07;;
76320;SDS011;65132;52.088;5.402;2023-06-19T16:04:01;6.40;;;4.22;;
76320;SDS011;65132;52.088;5.402;2023-06-19T16:06:31;7.95;;;4.88;;
76320;SDS011;65132;52.088;5.402;2023-06-19T16:08:59;6.45;;;4.63;;
76320;SDS011;65132;52.088;5.402;2023-06-19T16:11:28;7.07;;;4.18;;
76320;SDS011;65132;52.088;5.402;2023-06-19T16:14:01;6.82;;;3.63;;
76320;SDS011;65132;52.088;5.402;2023-06-19T16:16:33;5.95;;;3.58;;
76320;SDS011;65132;52.088;5.402;2023-06-19T16:19:02;6.57;;;4.47;;
76320;SDS011;65132;52.088;5.402;2023-06-19T16:21:28;7.38;;;3.63;;
76320;SDS011;65132;52.088;5.402;2023-06-19T16:23:57;6.72;;;3.72;;
76320;SDS011;65132;52.088;5.402;2023-06-19T16:26:24;7.30;;;3.72;;
76320;SDS011;65132;52.088;5.402;2023-06-19T16:28:52;6.88;;;3.65;;
76320;SDS011;65132;52.088;5.402;2023-06-19T16:31:29;7.15;;;3.53;;
76320;SDS011;65132;52.088;5.402;2023-06-19T16:34:01;6.63;;;3.67;;
76320;SDS011;65132;52.088;5.402;2023-06-19T16:36:27;6.97;;;4.28;;
76320;SDS011;65132;52.088;5.402;2023-06-19T16:38:56;7.20;;;3.97;;
76320;SDS011;65132;52.088;5.402;2023-06-19T16:41:31;9.50;;;4.82;;
76320;SDS011;65132;52.088;5.402;2023-06-19T16:43:58;6.40;;;3.65;;
76320;SDS011;65132;52.088;5.402;2023-06-19T16:46:28;9.10;;;5.00;;
76320;SDS011;65132;52.088;5.402;2023-06-19T16:49:00;7.93;;;4.72;;
76320;SDS011;65132;52.088;5.402;2023-06-19T16:51:32;7.57;;;4.80;;
76320;SDS011;65132;52.088;5.402;2023-06-19T16:54:03;6.45;;;4.15;;
76320;SDS011;65132;52.088;5.402;2023-06-19T16:56:33;7.00;;;3.97;;
76320;SDS011;65132;52.088;5.402;2023-06-19T16:59:05;6.95;;;3.78;;
76320;SDS011;65132;52.088;5.402;2023-06-19T17:01:37;7.07;;;4.10;;
76320;SDS011;65132;52.088;5.402;2023-06-19T17:04:06;6.05;;;3.83;;
76320;SDS011;65132;52.088;5.402;2023-06-19T17:06:33;8.10;;;4.43;;
76320;SDS011;65132;52.088;5.402;2023-06-19T17:09:00;7.70;;;3.85;;
76320;SDS011;65132;52.088;5.402;2023-06-19T17:11:28;7.28;;;4.03;;
76320;SDS011;65132;52.088;5.402;2023-06-19T17:14:01;7.72;;;3.70;;
76320;SDS011;65132;52.088;5.402;2023-06-19T17:16:28;4.90;;;3.55;;
76320;SDS011;65132;52.088;5.402;2023-06-19T17:18:55;6.35;;;3.47;;
76320;SDS011;65132;52.088;5.402;2023-06-19T17:21:21;6.47;;;4.10;;
76320;SDS011;65132;52.088;5.402;2023-06-19T17:23:51;8.05;;;4.05;;
76320;SDS011;65132;52.088;5.402;2023-06-19T17:26:18;5.82;;;3.60;;
76320;SDS011;65132;52.088;5.402;2023-06-19T17:28:46;7.13;;;4.28;;
76320;SDS011;65132;52.088;5.402;2023-06-19T17:31:15;6.72;;;4.10;;
76320;SDS011;65132;52.088;5.402;2023-06-19T17:33:42;7.25;;;3.75;;
76320;SDS011;65132;52.088;5.402;2023-06-19T17:36:09;6.75;;;4.10;;
76320;SDS011;65132;52.088;5.402;2023-06-19T17:38:38;6.55;;;4.45;;
76320;SDS011;65132;52.088;5.402;2023-06-19T17:41:04;7.05;;;4.53;;
76320;SDS011;65132;52.088;5.402;2023-06-19T17:43:35;5.40;;;3.58;;
76320;SDS011;65132;52.088;5.402;2023-06-19T17:46:19;7.18;;;3.92;;
76320;SDS011;65132;52.088;5.402;2023-06-19T17:48:51;8.35;;;3.90;;
76320;SDS011;65132;52.088;5.402;2023-06-19T17:51:21;7.88;;;4.60;;
76320;SDS011;65132;52.088;5.402;2023-06-19T17:53:48;5.93;;;3.55;;
76320;SDS011;65132;52.088;5.402;2023-06-19T17:56:15;6.50;;;3.90;;
76320;SDS011;65132;52.088;5.402;2023-06-19T17:58:50;5.80;;;3.55;;
76320;SDS011;65132;52.088;5.402;2023-06-19T18:01:18;4.85;;;3.17;;
76320;SDS011;65132;52.088;5.402;2023-06-19T18:03:44;5.55;;;3.60;;
76320;SDS011;65132;52.088;5.402;2023-06-19T18:06:12;7.13;;;4.05;;
76320;SDS011;65132;52.088;5.402;2023-06-19T18:08:38;5.47;;;3.72;;
76320;SDS011;65132;52.088;5.402;2023-06-19T18:11:05;8.23;;;4.00;;
76320;SDS011;65132;52.088;5.402;2023-06-19T18:13:31;6.10;;;3.92;;
76320;SDS011;65132;52.088;5.402;2023-06-19T18:16:02;5.65;;;3.63;;
76320;SDS011;65132;52.088;5.402;2023-06-19T18:18:40;6.43;;;3.78;;
76320;SDS011;65132;52.088;5.402;2023-06-19T18:21:08;6.57;;;3.88;;
76320;SDS011;65132;52.088;5.402;2023-06-19T18:23:41;5.93;;;4.30;;
76320;SDS011;65132;52.088;5.402;2023-06-19T18:26:10;7.85;;;4.80;;
76320;SDS011;65132;52.088;5.402;2023-06-19T18:28:36;8.57;;;4.78;;
76320;SDS011;65132;52.088;5.402;2023-06-19T18:31:06;9.48;;;5.47;;
76320;SDS011;65132;52.088;5.402;2023-06-19T18:33:43;9.40;;;5.53;;
76320;SDS011;65132;52.088;5.402;2023-06-19T18:36:12;10.45;;;7.13;;
76320;SDS011;65132;52.088;5.402;2023-06-19T18:38:39;9.25;;;5.90;;
76320;SDS011;65132;52.088;5.402;2023-06-19T18:41:13;9.80;;;6.38;;
76320;SDS011;65132;52.088;5.402;2023-06-19T18:43:39;10.32;;;6.30;;
76320;SDS011;65132;52.088;5.402;2023-06-19T18:46:08;10.85;;;6.13;;
76320;SDS011;65132;52.088;5.402;2023-06-19T18:48:35;10.23;;;7.03;;
76320;SDS011;65132;52.088;5.402;2023-06-19T18:51:01;10.32;;;5.85;;